sensor_id;sensor_type;location;lat;lon;timestamp;pressure;altitude;pressure_sealevel;temperature;humidity
52983;BME280;48698;45.736;13.926;2023-04-04T00:02:43;97423.28;;;2.33;69.04
52983;BME280;48698;45.736;13.926;2023-04-04T00:07:47;97405.81;;;2.35;68.45
52983;BME280;48698;45.736;13.926;2023-04-04T00:12:50;97329.56;;;2.07;68.29
52983;BME280;48698;45.736;13.926;2023-04-04T00:17:53;97403.28;;;2.29;67.92
52983;BME280;48698;45.736;13.926;2023-04-04T00:22:56;97372.19;;;2.14;68.55
52983;BME280;48698;45.736;13.926;2023-04-04T00:27:59;97285.22;;;1.62;68.48
52983;BME280;48698;45.736;13.926;2023-04-04T00:33:02;97036.13;;;0.32;67.92
52983;BME280;48698;45.736;13.926;2023-04-04T00:38:06;97329.91;;;1.92;67.89
52983;BME280;48698;45.736;13.926;2023-04-04T00:43:09;97375.47;;;2.25;67.40
52983;BME280;48698;45.736;13.926;2023-04-04T00:48:13;97327.53;;;1.82;67.34
52983;BME280;48698;45.736;13.926;2023-04-04T00:53:16;97278.47;;;1.50;67.43
52983;BME280;48698;45.736;13.926;2023-04-04T00:58:19;97404.22;;;2.27;66.85
52983;BME280;48698;45.736;13.926;2023-04-04T01:03:21;97366.19;;;2.09;65.82
52983;BME280;48698;45.736;13.926;2023-04-04T01:08:27;97378.75;;;2.33;65.68
52983;BME280;48698;45.736;13.926;2023-04-04T01:13:32;97318.75;;;1.84;65.33
52983;BME280;48698;45.736;13.926;2023-04-04T01:18:36;97113.66;;;0.72;64.74
52983;BME280;48698;45.736;13.926;2023-04-04T01:23:59;97385.72;;;2.34;64.37
52983;BME280;48698;45.736;13.926;2023-04-04T01:29:02;97383.13;;;2.33;63.87
52983;BME280;48698;45.736;13.926;2023-04-04T01:34:21;97356.97;;;2.31;64.09
52983;BME280;48698;45.736;13.926;2023-04-04T01:39:41;97363.09;;;2.30;63.34
52983;BME280;48698;45.736;13.926;2023-04-04T01:44:45;97357.78;;;2.33;62.07
52983;BME280;48698;45.736;13.926;2023-04-04T01:49:48;97363.72;;;2.41;61.88
52983;BME280;48698;45.736;13.926;2023-04-04T01:54:51;97284.41;;;1.96;62.05
52983;BME280;48698;45.736;13.926;2023-04-04T01:59:54;97163.47;;;1.06;62.50
52983;BME280;48698;45.736;13.926;2023-04-04T02:04:57;97106.50;;;0.80;62.24
52983;BME280;48698;45.736;13.926;2023-04-04T02:10:02;97197.94;;;1.24;62.02
52983;BME280;48698;45.736;13.926;2023-04-04T02:15:06;97371.06;;;2.26;61.96
52983;BME280;48698;45.736;13.926;2023-04-04T02:20:10;97347.63;;;2.20;61.85
52983;BME280;48698;45.736;13.926;2023-04-04T02:25:13;97090.56;;;0.52;61.58
52983;BME280;48698;45.736;13.926;2023-04-04T02:30:16;97338.25;;;2.09;61.81
52983;BME280;48698;45.736;13.926;2023-04-04T02:35:19;97145.47;;;0.92;61.76
52983;BME280;48698;45.736;13.926;2023-04-04T02:40:22;97200.03;;;1.09;61.38
52983;BME280;48698;45.736;13.926;2023-04-04T02:45:25;97312.81;;;1.76;60.81
52983;BME280;48698;45.736;13.926;2023-04-04T02:50:38;97325.03;;;1.76;60.76
52983;BME280;48698;45.736;13.926;2023-04-04T02:55:41;97335.94;;;1.96;61.33
52983;BME280;48698;45.736;13.926;2023-04-04T03:00:44;97336.06;;;1.90;61.36
52983;BME280;48698;45.736;13.926;2023-04-04T03:05:49;97258.88;;;1.29;61.09
52983;BME280;48698;45.736;13.926;2023-04-04T03:10:52;97035.06;;;-0.02;61.13
52983;BME280;48698;45.736;13.926;2023-04-04T03:16:02;97283.69;;;1.51;60.29
52983;BME280;48698;45.736;13.926;2023-04-04T03:21:06;97243.41;;;1.19;61.28
52983;BME280;48698;45.736;13.926;2023-04-04T03:26:09;97218.59;;;0.95;61.42
52983;BME280;48698;45.736;13.926;2023-04-04T03:31:12;97062.19;;;-0.11;61.12
52983;BME280;48698;45.736;13.926;2023-04-04T03:36:15;97365.34;;;1.67;61.29
52983;BME280;48698;45.736;13.926;2023-04-04T03:41:18;96996.00;;;-0.53;61.73
52983;BME280;48698;45.736;13.926;2023-04-04T03:46:21;97367.66;;;1.39;62.69
52983;BME280;48698;45.736;13.926;2023-04-04T03:51:24;97144.91;;;-0.14;62.38
52983;BME280;48698;45.736;13.926;2023-04-04T03:56:29;97037.84;;;-0.59;62.41
52983;BME280;48698;45.736;13.926;2023-04-04T04:01:32;97357.41;;;1.29;62.36
52983;BME280;48698;45.736;13.926;2023-04-04T04:06:35;97205.38;;;0.60;63.01
52983;BME280;48698;45.736;13.926;2023-04-04T04:11:39;96990.47;;;-0.85;63.06
52983;BME280;48698;45.736;13.926;2023-04-04T04:16:41;97281.16;;;0.60;63.22
52983;BME280;48698;45.736;13.926;2023-04-04T04:21:44;97272.50;;;0.55;63.62
52983;BME280;48698;45.736;13.926;2023-04-04T04:26:47;97106.66;;;-0.69;64.18
52983;BME280;48698;45.736;13.926;2023-04-04T04:31:50;97378.25;;;0.86;64.52
52983;BME280;48698;45.736;13.926;2023-04-04T04:36:55;97269.50;;;0.28;65.39
52983;BME280;48698;45.736;13.926;2023-04-04T04:42:06;97306.59;;;0.47;65.46
52983;BME280;48698;45.736;13.926;2023-04-04T04:47:08;97294.03;;;0.18;65.90
52983;BME280;48698;45.736;13.926;2023-04-04T04:52:11;97077.00;;;-1.17;65.68
52983;BME280;48698;45.736;13.926;2023-04-04T04:57:24;97390.59;;;0.78;65.87
52983;BME280;48698;45.736;13.926;2023-04-04T05:02:27;97418.47;;;0.79;66.39
52983;BME280;48698;45.736;13.926;2023-04-04T05:07:30;97358.25;;;0.31;66.57
52983;BME280;48698;45.736;13.926;2023-04-04T05:12:35;97277.19;;;-0.18;66.13
52983;BME280;48698;45.736;13.926;2023-04-04T05:17:46;97379.00;;;0.40;66.96
52983;BME280;48698;45.736;13.926;2023-04-04T05:22:49;97341.03;;;0.18;66.54
52983;BME280;48698;45.736;13.926;2023-04-04T05:27:52;97398.00;;;0.50;66.24
52983;BME280;48698;45.736;13.926;2023-04-04T05:32:58;97186.66;;;-0.71;66.97
52983;BME280;48698;45.736;13.926;2023-04-04T05:38:01;97424.47;;;0.84;66.59
52983;BME280;48698;45.736;13.926;2023-04-04T05:43:08;97423.59;;;0.85;67.56
52983;BME280;48698;45.736;13.926;2023-04-04T05:48:11;97259.75;;;-0.14;67.49
52983;BME280;48698;45.736;13.926;2023-04-04T05:53:14;97299.78;;;-0.15;67.62
52983;BME280;48698;45.736;13.926;2023-04-04T05:58:17;97257.22;;;-0.20;67.45
52983;BME280;48698;45.736;13.926;2023-04-04T06:03:20;97258.00;;;-0.15;67.43
52983;BME280;48698;45.736;13.926;2023-04-04T06:08:23;97437.25;;;1.02;67.56
52983;BME280;48698;45.736;13.926;2023-04-04T06:13:25;97348.34;;;0.50;66.70
52983;BME280;48698;45.736;13.926;2023-04-04T06:18:29;97274.16;;;0.10;66.92
52983;BME280;48698;45.736;13.926;2023-04-04T06:23:32;97440.47;;;1.16;66.66
52983;BME280;48698;45.736;13.926;2023-04-04T06:28:36;97445.63;;;1.22;66.95
52983;BME280;48698;45.736;13.926;2023-04-04T06:33:39;97405.75;;;1.08;66.78
52983;BME280;48698;45.736;13.926;2023-04-04T06:38:43;97409.94;;;1.18;66.12
52983;BME280;48698;45.736;13.926;2023-04-04T06:43:46;97322.69;;;0.73;65.36
52983;BME280;48698;45.736;13.926;2023-04-04T06:48:51;97356.31;;;0.93;65.07
52983;BME280;48698;45.736;13.926;2023-04-04T06:53:55;97354.75;;;1.30;64.78
52983;BME280;48698;45.736;13.926;2023-04-04T06:58:58;97402.94;;;1.65;64.11
52983;BME280;48698;45.736;13.926;2023-04-04T07:04:01;97298.03;;;0.89;63.24
52983;BME280;48698;45.736;13.926;2023-04-04T07:09:04;97415.84;;;2.15;63.65
52983;BME280;48698;45.736;13.926;2023-04-04T07:14:14;97317.00;;;1.43;61.73
52983;BME280;48698;45.736;13.926;2023-04-04T07:19:17;97214.81;;;1.10;60.84
52983;BME280;48698;45.736;13.926;2023-04-04T07:24:20;97419.44;;;2.49;60.59
52983;BME280;48698;45.736;13.926;2023-04-04T07:29:23;97305.34;;;1.98;60.01
52983;BME280;48698;45.736;13.926;2023-04-04T07:34:36;97071.84;;;0.72;59.56
52983;BME280;48698;45.736;13.926;2023-04-04T07:39:39;97390.44;;;2.55;58.74
52983;BME280;48698;45.736;13.926;2023-04-04T07:44:42;97302.22;;;2.19;58.81
52983;BME280;48698;45.736;13.926;2023-04-04T07:49:45;97429.41;;;3.07;59.15
52983;BME280;48698;45.736;13.926;2023-04-04T07:54:47;97298.56;;;2.26;58.86
52983;BME280;48698;45.736;13.926;2023-04-04T07:59:51;97458.06;;;3.15;57.80
52983;BME280;48698;45.736;13.926;2023-04-04T08:04:54;97358.25;;;2.86;57.86
52983;BME280;48698;45.736;13.926;2023-04-04T08:09:59;97467.00;;;3.42;58.39
52983;BME280;48698;45.736;13.926;2023-04-04T08:15:02;97447.53;;;3.50;58.08
52983;BME280;48698;45.736;13.926;2023-04-04T08:20:06;97232.31;;;2.21;57.39
52983;BME280;48698;45.736;13.926;2023-04-04T08:25:09;97312.25;;;3.05;56.68
52983;BME280;48698;45.736;13.926;2023-04-04T08:30:13;97439.00;;;4.05;56.93
52983;BME280;48698;45.736;13.926;2023-04-04T08:35:17;97199.09;;;2.88;57.36
52983;BME280;48698;45.736;13.926;2023-04-04T08:40:20;97270.03;;;3.45;56.77
52983;BME280;48698;45.736;13.926;2023-04-04T08:45:33;97370.63;;;4.35;55.62
52983;BME280;48698;45.736;13.926;2023-04-04T08:50:41;97268.81;;;4.13;55.81
52983;BME280;48698;45.736;13.926;2023-04-04T08:55:58;97435.00;;;5.06;54.41
52983;BME280;48698;45.736;13.926;2023-04-04T09:01:03;97202.84;;;3.95;54.87
52983;BME280;48698;45.736;13.926;2023-04-04T09:06:07;97372.44;;;5.89;54.42
52983;BME280;48698;45.736;13.926;2023-04-04T09:11:10;97358.75;;;5.30;53.75
52983;BME280;48698;45.736;13.926;2023-04-04T09:16:15;97425.66;;;6.23;53.18
52983;BME280;48698;45.736;13.926;2023-04-04T09:21:19;97329.59;;;5.59;51.79
52983;BME280;48698;45.736;13.926;2023-04-04T09:26:22;97205.78;;;5.12;52.13
52983;BME280;48698;45.736;13.926;2023-04-04T09:31:25;97409.06;;;6.19;51.48
52983;BME280;48698;45.736;13.926;2023-04-04T09:36:27;97379.13;;;6.87;52.86
52983;BME280;48698;45.736;13.926;2023-04-04T09:41:30;97211.09;;;5.57;50.56
52983;BME280;48698;45.736;13.926;2023-04-04T09:46:34;97163.41;;;5.65;51.44
52983;BME280;48698;45.736;13.926;2023-04-04T09:51:39;97419.06;;;7.21;50.92
52983;BME280;48698;45.736;13.926;2023-04-04T09:56:44;97428.56;;;7.67;50.52
52983;BME280;48698;45.736;13.926;2023-04-04T10:01:48;97405.56;;;7.29;49.31
52983;BME280;48698;45.736;13.926;2023-04-04T10:06:58;97386.13;;;7.50;49.51
52983;BME280;48698;45.736;13.926;2023-04-04T10:12:09;97176.53;;;6.32;49.05
52983;BME280;48698;45.736;13.926;2023-04-04T10:17:12;97151.22;;;6.68;49.63
52983;BME280;48698;45.736;13.926;2023-04-04T10:22:16;97408.59;;;7.60;48.99
52983;BME280;48698;45.736;13.926;2023-04-04T10:27:20;97199.28;;;7.15;48.81
52983;BME280;48698;45.736;13.926;2023-04-04T10:32:36;97301.50;;;8.09;47.54
52983;BME280;48698;45.736;13.926;2023-04-04T10:37:54;97432.94;;;8.48;47.45
52983;BME280;48698;45.736;13.926;2023-04-04T10:43:01;97282.47;;;9.10;48.39
52983;BME280;48698;45.736;13.926;2023-04-04T10:48:06;97338.91;;;9.79;48.42
52983;BME280;48698;45.736;13.926;2023-04-04T10:53:11;97410.56;;;9.26;46.76
52983;BME280;48698;45.736;13.926;2023-04-04T10:58:14;97361.72;;;10.16;47.87
52983;BME280;48698;45.736;13.926;2023-04-04T11:03:17;97281.53;;;8.41;46.60
52983;BME280;48698;45.736;13.926;2023-04-04T11:08:25;97339.09;;;8.91;45.99
52983;BME280;48698;45.736;13.926;2023-04-04T11:13:33;97364.50;;;9.46;45.50
52983;BME280;48698;45.736;13.926;2023-04-04T11:28:51;97152.00;;;8.72;44.94
52983;BME280;48698;45.736;13.926;2023-04-04T11:34:11;97413.22;;;10.45;44.96
52983;BME280;48698;45.736;13.926;2023-04-04T11:39:45;97401.53;;;9.30;44.58
52983;BME280;48698;45.736;13.926;2023-04-04T11:50:07;97194.34;;;7.84;42.33
52983;BME280;48698;45.736;13.926;2023-04-04T11:55:18;97386.78;;;9.25;43.91
52983;BME280;48698;45.736;13.926;2023-04-04T12:00:29;97371.31;;;8.81;42.20
52983;BME280;48698;45.736;13.926;2023-04-04T12:05:33;97135.41;;;7.82;43.04
52983;BME280;48698;45.736;13.926;2023-04-04T12:10:38;97363.19;;;9.55;43.60
52983;BME280;48698;45.736;13.926;2023-04-04T12:15:42;97390.91;;;10.16;44.18
52983;BME280;48698;45.736;13.926;2023-04-04T12:20:52;97362.19;;;10.07;43.85
52983;BME280;48698;45.736;13.926;2023-04-04T12:25:55;97103.00;;;8.48;42.88
52983;BME280;48698;45.736;13.926;2023-04-04T12:31:03;97326.31;;;9.67;43.26
52983;BME280;48698;45.736;13.926;2023-04-04T12:36:08;97294.03;;;9.42;42.67
52983;BME280;48698;45.736;13.926;2023-04-04T12:41:16;97344.69;;;9.88;44.02
52983;BME280;48698;45.736;13.926;2023-04-04T12:46:25;97283.56;;;9.73;43.48
52983;BME280;48698;45.736;13.926;2023-04-04T12:51:30;97121.84;;;8.92;42.97
52983;BME280;48698;45.736;13.926;2023-04-04T12:56:34;97359.44;;;10.09;43.71
52983;BME280;48698;45.736;13.926;2023-04-04T13:01:39;97235.25;;;9.51;42.06
52983;BME280;48698;45.736;13.926;2023-04-04T13:06:45;97099.94;;;8.89;43.37
52983;BME280;48698;45.736;13.926;2023-04-04T13:12:04;97173.59;;;9.15;42.93
52983;BME280;48698;45.736;13.926;2023-04-04T13:17:09;97100.72;;;9.08;42.59
52983;BME280;48698;45.736;13.926;2023-04-04T13:22:12;97346.66;;;10.32;42.57
52983;BME280;48698;45.736;13.926;2023-04-04T13:27:15;97278.03;;;10.09;42.05
52983;BME280;48698;45.736;13.926;2023-04-04T13:32:18;97279.16;;;10.05;44.45
52983;BME280;48698;45.736;13.926;2023-04-04T13:37:21;97278.88;;;10.27;45.11
52983;BME280;48698;45.736;13.926;2023-04-04T13:42:40;97278.16;;;10.39;45.23
52983;BME280;48698;45.736;13.926;2023-04-04T13:47:43;97206.75;;;9.88;46.58
52983;BME280;48698;45.736;13.926;2023-04-04T13:52:47;97324.78;;;10.60;47.63
52983;BME280;48698;45.736;13.926;2023-04-04T13:57:49;97114.41;;;8.99;45.74
52983;BME280;48698;45.736;13.926;2023-04-04T14:02:53;97330.31;;;10.56;44.50
52983;BME280;48698;45.736;13.926;2023-04-04T14:07:58;97195.88;;;9.61;47.46
52983;BME280;48698;45.736;13.926;2023-04-04T14:13:01;97254.59;;;9.53;44.81
52983;BME280;48698;45.736;13.926;2023-04-04T14:18:04;97329.19;;;10.44;46.07
52983;BME280;48698;45.736;13.926;2023-04-04T14:23:07;97282.97;;;10.17;43.60
52983;BME280;48698;45.736;13.926;2023-04-04T14:28:11;97140.28;;;9.11;42.46
52983;BME280;48698;45.736;13.926;2023-04-04T14:33:13;97130.72;;;9.24;42.40
52983;BME280;48698;45.736;13.926;2023-04-04T14:38:17;97296.31;;;10.31;42.86
52983;BME280;48698;45.736;13.926;2023-04-04T14:43:19;97073.97;;;9.28;45.00
52983;BME280;48698;45.736;13.926;2023-04-04T14:48:22;97246.31;;;10.39;44.96
52983;BME280;48698;45.736;13.926;2023-04-04T14:53:25;97131.09;;;9.49;45.27
52983;BME280;48698;45.736;13.926;2023-04-04T14:58:27;97226.25;;;10.02;43.93
52983;BME280;48698;45.736;13.926;2023-04-04T15:03:30;97207.75;;;9.69;42.53
52983;BME280;48698;45.736;13.926;2023-04-04T15:08:33;97106.19;;;9.05;41.65
52983;BME280;48698;45.736;13.926;2023-04-04T15:13:35;97176.88;;;9.20;45.01
52983;BME280;48698;45.736;13.926;2023-04-04T15:18:38;97356.13;;;10.54;44.06
52983;BME280;48698;45.736;13.926;2023-04-04T15:23:41;97363.28;;;10.20;45.11
52983;BME280;48698;45.736;13.926;2023-04-04T15:28:44;97288.72;;;9.59;46.13
52983;BME280;48698;45.736;13.926;2023-04-04T15:33:47;97351.97;;;9.32;46.27
52983;BME280;48698;45.736;13.926;2023-04-04T15:38:51;97265.94;;;8.88;45.81
52983;BME280;48698;45.736;13.926;2023-04-04T15:43:54;97314.00;;;8.98;48.18
52983;BME280;48698;45.736;13.926;2023-04-04T15:48:57;97368.66;;;9.34;46.73
52983;BME280;48698;45.736;13.926;2023-04-04T15:54:00;97122.06;;;8.19;46.03
52983;BME280;48698;45.736;13.926;2023-04-04T15:59:03;97256.13;;;9.07;46.62
52983;BME280;48698;45.736;13.926;2023-04-04T16:04:06;97233.53;;;9.00;46.38
52983;BME280;48698;45.736;13.926;2023-04-04T16:09:08;97342.47;;;9.11;45.84
52983;BME280;48698;45.736;13.926;2023-04-04T16:14:11;97383.97;;;9.28;46.12
52983;BME280;48698;45.736;13.926;2023-04-04T16:19:15;97401.22;;;8.83;44.92
52983;BME280;48698;45.736;13.926;2023-04-04T16:24:19;97399.75;;;8.95;47.11
52983;BME280;48698;45.736;13.926;2023-04-04T16:29:23;97345.16;;;8.93;46.83
52983;BME280;48698;45.736;13.926;2023-04-04T16:34:27;97122.56;;;6.99;46.97
52983;BME280;48698;45.736;13.926;2023-04-04T16:39:30;97251.44;;;7.88;48.12
52983;BME280;48698;45.736;13.926;2023-04-04T16:44:33;97329.09;;;7.85;47.57
52983;BME280;48698;45.736;13.926;2023-04-04T16:49:36;97318.47;;;8.05;48.06
52983;BME280;48698;45.736;13.926;2023-04-04T16:54:48;97430.09;;;8.32;48.75
52983;BME280;48698;45.736;13.926;2023-04-04T16:59:51;97375.94;;;8.02;48.51
52983;BME280;48698;45.736;13.926;2023-04-04T17:04:54;97336.06;;;7.67;48.49
52983;BME280;48698;45.736;13.926;2023-04-04T17:10:09;97312.75;;;7.57;47.56
52983;BME280;48698;45.736;13.926;2023-04-04T17:15:12;97352.06;;;7.64;47.42
52983;BME280;48698;45.736;13.926;2023-04-04T17:20:28;97213.81;;;6.85;47.86
52983;BME280;48698;45.736;13.926;2023-04-04T17:25:37;97350.09;;;6.44;49.12
52983;BME280;48698;45.736;13.926;2023-04-04T17:30:39;97425.28;;;6.55;49.82
52983;BME280;48698;45.736;13.926;2023-04-04T17:35:43;97440.34;;;6.05;50.44
52983;BME280;48698;45.736;13.926;2023-04-04T17:40:49;97332.13;;;5.37;51.02
52983;BME280;48698;45.736;13.926;2023-04-04T17:45:54;97483.81;;;6.18;51.33
52983;BME280;48698;45.736;13.926;2023-04-04T17:50:57;97403.66;;;5.74;51.62
52983;BME280;48698;45.736;13.926;2023-04-04T17:56:04;97134.44;;;3.98;52.00
52983;BME280;48698;45.736;13.926;2023-04-04T18:01:07;97313.09;;;4.80;52.04
52983;BME280;48698;45.736;13.926;2023-04-04T18:06:10;97279.59;;;4.58;51.93
52983;BME280;48698;45.736;13.926;2023-04-04T18:11:13;97514.53;;;5.68;52.75
52983;BME280;48698;45.736;13.926;2023-04-04T18:16:15;97421.22;;;4.98;52.78
52983;BME280;48698;45.736;13.926;2023-04-04T18:21:18;97417.88;;;4.65;53.36
52983;BME280;48698;45.736;13.926;2023-04-04T18:26:21;97501.59;;;5.08;53.60
52983;BME280;48698;45.736;13.926;2023-04-04T18:31:27;97520.00;;;5.10;54.18
52983;BME280;48698;45.736;13.926;2023-04-04T18:36:30;97282.66;;;3.61;53.77
52983;BME280;48698;45.736;13.926;2023-04-04T18:41:32;97578.16;;;5.30;54.40
52983;BME280;48698;45.736;13.926;2023-04-04T18:46:35;97277.69;;;3.22;54.31
52983;BME280;48698;45.736;13.926;2023-04-04T18:51:39;97542.50;;;4.91;55.04
52983;BME280;48698;45.736;13.926;2023-04-04T18:56:42;97466.91;;;4.09;55.00
52983;BME280;48698;45.736;13.926;2023-04-04T19:01:55;97534.91;;;4.51;55.51
52983;BME280;48698;45.736;13.926;2023-04-04T19:07:03;97379.59;;;3.38;56.06
52983;BME280;48698;45.736;13.926;2023-04-04T19:12:06;97654.13;;;4.84;55.75
52983;BME280;48698;45.736;13.926;2023-04-04T19:17:20;97614.28;;;4.66;56.33
52983;BME280;48698;45.736;13.926;2023-04-04T19:22:23;97306.13;;;2.74;56.10
52983;BME280;48698;45.736;13.926;2023-04-04T19:27:26;97412.81;;;3.39;56.17
52983;BME280;48698;45.736;13.926;2023-04-04T19:32:29;97669.06;;;4.82;56.60
52983;BME280;48698;45.736;13.926;2023-04-04T19:37:32;97684.59;;;4.60;56.89
52983;BME280;48698;45.736;13.926;2023-04-04T19:42:34;97677.50;;;4.63;56.20
52983;BME280;48698;45.736;13.926;2023-04-04T19:47:37;97648.06;;;4.15;56.72
52983;BME280;48698;45.736;13.926;2023-04-04T19:52:40;97490.75;;;3.37;56.58
52983;BME280;48698;45.736;13.926;2023-04-04T19:57:43;97475.53;;;3.16;56.82
52983;BME280;48698;45.736;13.926;2023-04-04T20:02:51;97566.41;;;3.55;56.75
52983;BME280;48698;45.736;13.926;2023-04-04T20:07:54;97715.91;;;4.37;56.87
52983;BME280;48698;45.736;13.926;2023-04-04T20:12:57;97669.81;;;4.22;57.14
52983;BME280;48698;45.736;13.926;2023-04-04T20:18:00;97579.78;;;3.46;57.03
52983;BME280;48698;45.736;13.926;2023-04-04T20:23:04;97709.25;;;4.22;56.87
52983;BME280;48698;45.736;13.926;2023-04-04T20:28:28;97680.88;;;4.01;57.23
52983;BME280;48698;45.736;13.926;2023-04-04T20:33:36;97723.97;;;4.29;57.06
52983;BME280;48698;45.736;13.926;2023-04-04T20:38:40;97670.56;;;3.92;56.94
52983;BME280;48698;45.736;13.926;2023-04-04T20:43:49;97371.63;;;2.00;57.08
52983;BME280;48698;45.736;13.926;2023-04-04T20:48:53;97550.25;;;3.00;57.64
52983;BME280;48698;45.736;13.926;2023-04-04T20:54:02;97581.19;;;3.24;56.88
52983;BME280;48698;45.736;13.926;2023-04-04T20:59:31;97736.81;;;4.06;57.74
52983;BME280;48698;45.736;13.926;2023-04-04T21:04:34;97661.63;;;3.63;57.38
52983;BME280;48698;45.736;13.926;2023-04-04T21:09:37;97577.72;;;2.84;58.20
52983;BME280;48698;45.736;13.926;2023-04-04T21:14:40;97741.00;;;3.78;58.19
52983;BME280;48698;45.736;13.926;2023-04-04T21:19:44;97732.00;;;3.88;58.41
52983;BME280;48698;45.736;13.926;2023-04-04T21:24:49;97676.41;;;3.31;58.23
52983;BME280;48698;45.736;13.926;2023-04-04T21:29:52;97752.78;;;3.97;58.32
52983;BME280;48698;45.736;13.926;2023-04-04T21:34:55;97707.25;;;3.58;57.81
52983;BME280;48698;45.736;13.926;2023-04-04T21:39:58;97670.78;;;3.46;58.11
52983;BME280;48698;45.736;13.926;2023-04-04T21:45:02;97715.16;;;3.58;58.42
52983;BME280;48698;45.736;13.926;2023-04-04T21:50:05;97438.13;;;1.94;58.24
52983;BME280;48698;45.736;13.926;2023-04-04T21:55:09;97416.63;;;1.79;57.93
52983;BME280;48698;45.736;13.926;2023-04-04T22:00:16;97477.19;;;2.05;58.88
52983;BME280;48698;45.736;13.926;2023-04-04T22:05:19;97746.19;;;3.41;59.58
52983;BME280;48698;45.736;13.926;2023-04-04T22:10:36;97660.31;;;3.06;59.47
52983;BME280;48698;45.736;13.926;2023-04-04T22:15:51;97749.97;;;3.68;59.14
52983;BME280;48698;45.736;13.926;2023-04-04T22:20:55;97754.81;;;3.46;59.66
52983;BME280;48698;45.736;13.926;2023-04-04T22:25:58;97660.31;;;3.06;59.37
52983;BME280;48698;45.736;13.926;2023-04-04T22:31:04;97662.97;;;3.04;59.05
52983;BME280;48698;45.736;13.926;2023-04-04T22:36:07;97761.31;;;3.68;58.65
52983;BME280;48698;45.736;13.926;2023-04-04T22:41:11;97716.13;;;3.14;59.07
52983;BME280;48698;45.736;13.926;2023-04-04T22:46:14;97511.63;;;1.85;59.43
52983;BME280;48698;45.736;13.926;2023-04-04T22:51:18;97760.13;;;3.44;59.80
52983;BME280;48698;45.736;13.926;2023-04-04T22:56:22;97741.03;;;3.35;59.98
52983;BME280;48698;45.736;13.926;2023-04-04T23:01:25;97624.06;;;2.42;59.58
52983;BME280;48698;45.736;13.926;2023-04-04T23:06:28;97787.81;;;3.16;60.38
52983;BME280;48698;45.736;13.926;2023-04-04T23:11:31;97468.25;;;1.72;59.52
52983;BME280;48698;45.736;13.926;2023-04-04T23:16:34;97726.63;;;3.14;60.29
52983;BME280;48698;45.736;13.926;2023-04-04T23:21:37;97549.53;;;2.12;60.31
52983;BME280;48698;45.736;13.926;2023-04-04T23:26:40;97565.94;;;1.74;60.81
52983;BME280;48698;45.736;13.926;2023-04-04T23:31:53;97608.16;;;2.05;61.15
52983;BME280;48698;45.736;13.926;2023-04-04T23:36:56;97627.94;;;2.20;61.36
52983;BME280;48698;45.736;13.926;2023-04-04T23:41:59;97638.72;;;2.50;61.05
52983;BME280;48698;45.736;13.926;2023-04-04T23:47:02;97465.44;;;1.34;60.66
52983;BME280;48698;45.736;13.926;2023-04-04T23:52:06;97736.03;;;2.80;61.94
52983;BME280;48698;45.736;13.926;2023-04-04T23:57:08;97547.97;;;1.53;61.49
